Time;durP1;ratioP1;P1;durP2;ratioP2;P2;SDS_P1;SDS_P2;PMS_P1;PMS_P2;Temp;Humidity;BMP_temperature;BMP_pressure;BME280_temperature;BME280_humidity;BME280_pressure;Samples;Min_cycle;Max_cycle;Signal;HPM_P1;HPM_P2
2023/08/02 00:03:04;;;;;;;6.03;2.33;;;;;;;;;;8233237;28;20145;-70
2023/08/02 00:07:05;;;;;;;3.92;1.90;;;;;;;;;;8234067;28;20026;-70
2023/08/02 00:11:05;;;;;;;4.60;1.95;;;;;;;;;;8236345;28;20033;-70
2023/08/02 00:15:05;;;;;;;3.28;1.90;;;;;;;;;;8236709;28;20057;-70
2023/08/02 00:19:06;;;;;;;2.03;1.65;;;;;;;;;;8215014;28;20041;-70
2023/08/02 00:23:06;;;;;;;4.23;1.70;;;;;;;;;;8234056;28;20058;-70
2023/08/02 00:27:06;;;;;;;3.45;1.95;;;;;;;;;;8237091;28;20309;-70
2023/08/02 00:31:06;;;;;;;2.70;1.80;;;;;;;;;;8234997;28;20034;-70
2023/08/02 00:35:07;;;;;;;1.67;1.57;;;;;;;;;;8236153;28;20030;-70
2023/08/02 00:39:07;;;;;;;3.72;1.75;;;;;;;;;;8233273;28;20764;-70
2023/08/02 00:43:07;;;;;;;3.33;1.70;;;;;;;;;;8243405;28;20034;-70
2023/08/02 00:47:08;;;;;;;4.67;2.30;;;;;;;;;;8239689;28;20033;-70
2023/08/02 00:51:12;;;;;;;4.30;1.77;;;;;;;;;;8241821;28;20303;-70
2023/08/02 00:55:12;;;;;;;3.85;1.75;;;;;;;;;;8229597;28;20023;-70
2023/08/02 00:59:12;;;;;;;4.28;1.73;;;;;;;;;;8240723;28;20030;-70
2023/08/02 01:03:13;;;;;;;4.65;2.10;;;;;;;;;;8240238;28;20037;-70
2023/08/02 01:07:32;;;;;;;3.73;1.80;;;;;;;;;;8241736;28;20755;-70
2023/08/02 01:11:39;;;;;;;2.95;2.10;;;;;;;;;;8244817;28;20316;-70
2023/08/02 01:15:39;;;;;;;4.47;2.00;;;;;;;;;;8244088;28;20038;-70
2023/08/02 01:19:40;;;;;;;2.58;1.80;;;;;;;;;;8241377;28;20025;-70
2023/08/02 01:23:40;;;;;;;3.80;1.70;;;;;;;;;;8241826;28;20495;-70
2023/08/02 01:27:43;;;;;;;5.45;2.10;;;;;;;;;;8242134;28;20084;-70
2023/08/02 01:31:44;;;;;;;2.92;1.90;;;;;;;;;;8242321;28;20458;-70
2023/08/02 01:35:44;;;;;;;2.90;1.90;;;;;;;;;;8242697;28;20142;-70
2023/08/02 01:39:44;;;;;;;3.13;1.83;;;;;;;;;;8239465;28;20034;-70
2023/08/02 01:43:45;;;;;;;3.38;1.95;;;;;;;;;;8240249;28;20044;-70
2023/08/02 01:47:45;;;;;;;2.53;1.73;;;;;;;;;;8241425;28;20049;-70
2023/08/02 01:51:45;;;;;;;4.40;1.80;;;;;;;;;;8230157;28;20315;-70
2023/08/02 01:55:45;;;;;;;7.40;2.05;;;;;;;;;;8235757;28;20759;-70
2023/08/02 01:59:46;;;;;;;4.82;1.90;;;;;;;;;;8233734;28;20052;-70
2023/08/02 02:03:46;;;;;;;8.40;2.17;;;;;;;;;;8238601;28;20164;-70
2023/08/02 02:07:46;;;;;;;3.85;2.05;;;;;;;;;;8236658;28;20030;-70
2023/08/02 02:11:46;;;;;;;4.90;2.10;;;;;;;;;;8238685;28;20092;-70
2023/08/02 02:15:46;;;;;;;2.95;1.90;;;;;;;;;;8239232;28;20043;-70
2023/08/02 02:19:47;;;;;;;4.82;2.28;;;;;;;;;;8239401;28;20096;-70
2023/08/02 02:23:47;;;;;;;4.70;2.20;;;;;;;;;;8237400;28;20952;-70
2023/08/02 02:27:47;;;;;;;3.87;2.17;;;;;;;;;;8218519;28;20033;-70
2023/08/02 02:31:47;;;;;;;3.63;1.70;;;;;;;;;;8240438;28;20112;-70
2023/08/02 02:35:48;;;;;;;6.57;2.38;;;;;;;;;;8237747;28;20029;-70
2023/08/02 02:39:48;;;;;;;3.65;2.10;;;;;;;;;;8237393;28;20041;-70
2023/08/02 02:43:48;;;;;;;3.20;2.20;;;;;;;;;;8237953;28;20062;-70
2023/08/02 02:47:48;;;;;;;3.92;2.15;;;;;;;;;;8236607;28;20042;-70
2023/08/02 02:51:48;;;;;;;4.72;2.22;;;;;;;;;;8236298;28;20029;-70
2023/08/02 02:55:49;;;;;;;3.47;2.10;;;;;;;;;;8238014;28;20032;-70
2023/08/02 02:59:49;;;;;;;3.45;2.00;;;;;;;;;;8237180;28;20025;-70
2023/08/02 03:03:49;;;;;;;5.05;1.98;;;;;;;;;;8237648;28;20053;-70
2023/08/02 03:07:49;;;;;;;6.75;2.00;;;;;;;;;;8237705;28;20033;-70
2023/08/02 03:11:49;;;;;;;3.37;2.07;;;;;;;;;;8238393;28;20037;-70
2023/08/02 03:15:50;;;;;;;4.35;1.88;;;;;;;;;;8236028;28;20125;-71
2023/08/02 03:19:50;;;;;;;5.68;2.10;;;;;;;;;;8236519;28;20057;-71
2023/08/02 03:23:50;;;;;;;3.23;2.10;;;;;;;;;;8237470;28;20027;-71
2023/08/02 03:27:50;;;;;;;3.45;1.70;;;;;;;;;;8236422;28;20085;-71
2023/08/02 03:31:50;;;;;;;5.80;1.90;;;;;;;;;;8238411;28;20034;-71
2023/08/02 03:35:51;;;;;;;3.08;1.70;;;;;;;;;;8237908;28;20040;-71
2023/08/02 03:39:51;;;;;;;3.78;1.77;;;;;;;;;;8235523;28;20041;-70
2023/08/02 03:43:51;;;;;;;4.38;1.92;;;;;;;;;;8236953;28;20175;-71
2023/08/02 03:47:51;;;;;;;3.70;1.70;;;;;;;;;;8237174;28;20922;-72
2023/08/02 03:51:52;;;;;;;4.70;1.90;;;;;;;;;;8237355;28;20032;-70
2023/08/02 03:55:52;;;;;;;3.97;1.80;;;;;;;;;;8234782;28;20038;-70
2023/08/02 03:59:52;;;;;;;1.70;1.60;;;;;;;;;;8237538;28;20176;-70
2023/08/02 04:03:52;;;;;;;3.67;1.90;;;;;;;;;;8236219;28;20049;-70
2023/08/02 04:07:52;;;;;;;2.85;1.67;;;;;;;;;;8233415;28;20140;-70
2023/08/02 04:11:53;;;;;;;3.97;1.80;;;;;;;;;;8233846;28;20137;-71
2023/08/02 04:15:53;;;;;;;5.22;1.70;;;;;;;;;;8240248;28;20038;-71
2023/08/02 04:19:53;;;;;;;4.35;2.05;;;;;;;;;;8243189;28;20058;-70
2023/08/02 04:23:53;;;;;;;3.42;2.17;;;;;;;;;;8244087;28;20126;-71
2023/08/02 04:27:53;;;;;;;3.40;1.80;;;;;;;;;;8241154;28;20026;-70
2023/08/02 04:31:54;;;;;;;2.60;1.88;;;;;;;;;;8235673;28;20035;-70
2023/08/02 04:35:57;;;;;;;3.70;1.92;;;;;;;;;;8241122;28;20053;-70
2023/08/02 04:39:57;;;;;;;4.53;1.80;;;;;;;;;;8238643;28;20026;-70
2023/08/02 04:43:57;;;;;;;4.60;2.00;;;;;;;;;;8243260;28;20043;-70
2023/08/02 04:47:58;;;;;;;8.40;2.30;;;;;;;;;;8241403;28;20595;-70
2023/08/02 04:51:59;;;;;;;4.68;2.03;;;;;;;;;;8241077;28;20076;-70
2023/08/02 04:55:59;;;;;;;4.38;2.35;;;;;;;;;;8242972;28;20076;-70
2023/08/02 04:59:59;;;;;;;4.18;2.13;;;;;;;;;;8243648;28;20038;-71
2023/08/02 05:03:59;;;;;;;4.82;2.15;;;;;;;;;;8242233;28;20539;-71
2023/08/02 05:08:00;;;;;;;4.70;2.20;;;;;;;;;;8242906;28;20033;-71
2023/08/02 05:12:00;;;;;;;2.80;1.90;;;;;;;;;;8240140;28;20041;-70
2023/08/02 05:16:01;;;;;;;4.13;1.90;;;;;;;;;;8242245;28;20034;-70
2023/08/02 05:20:01;;;;;;;4.60;2.20;;;;;;;;;;8243683;28;20029;-69
2023/08/02 05:24:01;;;;;;;4.22;2.05;;;;;;;;;;8241753;28;20027;-69
2023/08/02 05:28:02;;;;;;;3.57;2.00;;;;;;;;;;8239954;28;20046;-68
2023/08/02 05:32:02;;;;;;;4.88;2.20;;;;;;;;;;8239041;28;20285;-69
2023/08/02 05:36:02;;;;;;;4.40;2.10;;;;;;;;;;8243729;28;20038;-69
2023/08/02 05:40:03;;;;;;;4.33;2.27;;;;;;;;;;8241209;28;20061;-69
2023/08/02 05:44:03;;;;;;;7.07;2.47;;;;;;;;;;8241647;28;20095;-69
2023/08/02 05:48:03;;;;;;;9.75;5.50;;;;;;;;;;8240420;28;20338;-69
2023/08/02 05:52:03;;;;;;;6.47;3.27;;;;;;;;;;8241937;28;20114;-69
2023/08/02 05:56:04;;;;;;;5.47;3.13;;;;;;;;;;8238655;28;20037;-69
2023/08/02 06:00:07;;;;;;;5.90;2.63;;;;;;;;;;8240291;28;20121;-69
2023/08/02 06:04:07;;;;;;;5.65;2.70;;;;;;;;;;8242216;28;20034;-69
2023/08/02 06:08:07;;;;;;;3.05;2.33;;;;;;;;;;8238979;28;20038;-69
2023/08/02 06:12:07;;;;;;;2.88;2.17;;;;;;;;;;8240921;28;20042;-69
2023/08/02 06:16:07;;;;;;;9.18;2.83;;;;;;;;;;8239886;28;20466;-69
2023/08/02 06:20:08;;;;;;;3.72;1.80;;;;;;;;;;8240132;28;20037;-68
2023/08/02 06:24:08;;;;;;;4.55;2.30;;;;;;;;;;8238925;28;20391;-69
2023/08/02 06:28:08;;;;;;;4.97;2.20;;;;;;;;;;8222753;28;20141;-69
2023/08/02 06:32:08;;;;;;;7.65;2.80;;;;;;;;;;8238221;28;20044;-72
2023/08/02 06:36:09;;;;;;;5.38;2.60;;;;;;;;;;8241834;28;20037;-69
2023/08/02 06:40:09;;;;;;;4.30;2.63;;;;;;;;;;8238560;28;20053;-69
2023/08/02 06:44:09;;;;;;;12.30;2.75;;;;;;;;;;8238369;28;20033;-69
2023/08/02 06:48:10;;;;;;;2.97;2.00;;;;;;;;;;8239381;28;20034;-69
2023/08/02 06:52:10;;;;;;;4.10;2.58;;;;;;;;;;8238676;28;20026;-69
2023/08/02 06:56:14;;;;;;;3.30;2.13;;;;;;;;;;8239533;28;20029;-69
2023/08/02 07:00:14;;;;;;;3.83;2.15;;;;;;;;;;8219902;28;21074;-69
2023/08/02 07:04:14;;;;;;;2.13;1.90;;;;;;;;;;8239154;28;20825;-69
2023/08/02 07:08:14;;;;;;;3.60;1.75;;;;;;;;;;8237639;28;20034;-69
2023/08/02 07:12:14;;;;;;;2.53;1.70;;;;;;;;;;8240161;28;20096;-69
2023/08/02 07:16:15;;;;;;;1.80;1.60;;;;;;;;;;8237757;28;20137;-69
2023/08/02 07:20:15;;;;;;;4.68;2.15;;;;;;;;;;8237196;28;20038;-68
2023/08/02 07:24:15;;;;;;;6.80;2.65;;;;;;;;;;8228211;28;20072;-68
2023/08/02 07:28:15;;;;;;;4.43;2.78;;;;;;;;;;8236908;28;21069;-68
2023/08/02 07:32:15;;;;;;;7.13;2.45;;;;;;;;;;8236918;28;20127;-69
2023/08/02 07:36:18;;;;;;;4.07;2.30;;;;;;;;;;8237130;28;20064;-68
2023/08/02 07:40:18;;;;;;;3.05;2.13;;;;;;;;;;8228801;28;20641;-69
2023/08/02 07:44:18;;;;;;;2.20;1.50;;;;;;;;;;8220108;28;20029;-69
2023/08/02 07:48:19;;;;;;;1.88;1.30;;;;;;;;;;8237378;28;20035;-69
2023/08/02 07:52:19;;;;;;;1.95;1.08;;;;;;;;;;8235931;28;20320;-69
2023/08/02 07:56:19;;;;;;;2.38;1.42;;;;;;;;;;8237320;28;20026;-69
2023/08/02 08:00:19;;;;;;;2.20;1.30;;;;;;;;;;8235398;28;20034;-69
2023/08/02 08:04:20;;;;;;;3.35;1.77;;;;;;;;;;8238653;28;20045;-69
2023/08/02 08:08:20;;;;;;;5.50;1.60;;;;;;;;;;8236459;28;20120;-69
2023/08/02 08:12:20;;;;;;;9.40;3.80;;;;;;;;;;8236888;28;20033;-69
2023/08/02 08:16:21;;;;;;;2.78;1.80;;;;;;;;;;8236281;28;20709;-69
2023/08/02 08:20:21;;;;;;;8.55;2.40;;;;;;;;;;8236234;28;20038;-69
2023/08/02 08:24:23;;;;;;;1.80;1.10;;;;;;;;;;8236106;28;20557;-69
2023/08/02 08:28:24;;;;;;;0.88;0.82;;;;;;;;;;8237985;28;20527;-69
2023/08/02 08:32:26;;;;;;;0.73;0.60;;;;;;;;;;8235730;28;20065;-69
2023/08/02 08:36:29;;;;;;;2.00;0.60;;;;;;;;;;8236923;28;20148;-69
2023/08/02 08:40:29;;;;;;;0.80;0.80;;;;;;;;;;8237032;28;20277;-69
2023/08/02 08:44:29;;;;;;;0.70;0.50;;;;;;;;;;8239585;28;20073;-69
2023/08/02 08:48:30;;;;;;;0.45;0.45;;;;;;;;;;8217058;28;20121;-69
2023/08/02 08:52:34;;;;;;;0.45;0.45;;;;;;;;;;8236429;28;20034;-69
2023/08/02 08:56:36;;;;;;;0.93;0.40;;;;;;;;;;8236673;28;20096;-69
2023/08/02 09:00:37;;;;;;;0.40;0.40;;;;;;;;;;8238466;28;20457;-69
2023/08/02 09:04:37;;;;;;;0.40;0.40;;;;;;;;;;8243094;28;21025;-69
2023/08/02 09:08:44;;;;;;;0.50;0.40;;;;;;;;;;8239889;28;20034;-69
2023/08/02 09:12:45;;;;;;;0.85;0.30;;;;;;;;;;8241790;28;20809;-69
2023/08/02 09:16:56;;;;;;;0.30;0.30;;;;;;;;;;8240884;28;20438;-69
2023/08/02 09:20:58;;;;;;;0.30;0.30;;;;;;;;;;8242720;28;20132;-68
2023/08/02 09:24:59;;;;;;;1.05;0.40;;;;;;;;;;8223882;28;20026;-69
2023/08/02 09:29:06;;;;;;;1.08;0.30;;;;;;;;;;8242336;28;20057;-69
2023/08/02 09:33:07;;;;;;;4.15;0.47;;;;;;;;;;8244316;28;20133;-69
2023/08/02 09:37:07;;;;;;;0.55;0.40;;;;;;;;;;8241029;28;20805;-69
2023/08/02 09:41:20;;;;;;;0.67;0.40;;;;;;;;;;8242988;28;20790;-68
2023/08/02 09:45:29;;;;;;;1.55;0.40;;;;;;;;;;8243084;28;20036;-69
2023/08/02 09:49:30;;;;;;;0.57;0.47;;;;;;;;;;8240516;28;20018;-69
2023/08/02 09:53:30;;;;;;;0.30;0.30;;;;;;;;;;8241063;28;20034;-69
2023/08/02 09:57:31;;;;;;;0.95;0.50;;;;;;;;;;8239943;28;20068;-69
2023/08/02 10:01:32;;;;;;;1.15;0.40;;;;;;;;;;8240837;28;20037;-69
2023/08/02 10:05:34;;;;;;;0.30;0.30;;;;;;;;;;8243561;28;20022;-68
2023/08/02 10:09:34;;;;;;;0.55;0.55;;;;;;;;;;8239941;28;20026;-69
2023/08/02 10:13:38;;;;;;;3.20;0.50;;;;;;;;;;8239633;28;20858;-68
2023/08/02 10:17:38;;;;;;;;;;;;;;;;;;8239999;28;20810;-68
2023/08/02 10:21:39;;;;;;;0.60;0.60;;;;;;;;;;8240119;28;19921;-68
2023/08/02 10:25:41;;;;;;;1.38;0.60;;;;;;;;;;8240128;28;20061;-69
2023/08/02 10:29:41;;;;;;;1.77;0.60;;;;;;;;;;8238114;28;20049;-69
2023/08/02 10:33:41;;;;;;;0.60;0.60;;;;;;;;;;8240982;28;20108;-69
2023/08/02 10:37:50;;;;;;;0.60;0.47;;;;;;;;;;8238912;28;20034;-69
2023/08/02 10:41:57;;;;;;;0.60;0.60;;;;;;;;;;8242547;28;20032;-69
2023/08/02 10:46:17;;;;;;;2.78;0.70;;;;;;;;;;8241842;28;20061;-69
2023/08/02 10:50:40;;;;;;;0.70;0.70;;;;;;;;;;8222335;28;20057;-69
2023/08/02 10:55:00;;;;;;;0.75;0.75;;;;;;;;;;8227908;28;20049;-69
2023/08/02 10:59:00;;;;;;;0.70;0.70;;;;;;;;;;8239833;28;20058;-69
2023/08/02 11:03:01;;;;;;;0.90;0.90;;;;;;;;;;8241741;28;20049;-68
2023/08/02 11:07:11;;;;;;;0.88;0.80;;;;;;;;;;8239822;28;20082;-69
2023/08/02 11:11:11;;;;;;;1.05;0.93;;;;;;;;;;8240299;28;20042;-69
2023/08/02 11:15:16;;;;;;;0.90;0.90;;;;;;;;;;8222118;28;20037;-69
2023/08/02 11:19:16;;;;;;;0.77;0.77;;;;;;;;;;8242884;28;20036;-69
2023/08/02 11:23:25;;;;;;;1.50;0.80;;;;;;;;;;8238417;28;20033;-69
2023/08/02 11:27:28;;;;;;;0.80;0.80;;;;;;;;;;8240065;28;20084;-68
2023/08/02 11:31:28;;;;;;;0.70;0.70;;;;;;;;;;8238208;28;20044;-69
2023/08/02 11:35:29;;;;;;;1.00;1.00;;;;;;;;;;8241844;28;20034;-69
2023/08/02 11:39:30;;;;;;;0.90;0.90;;;;;;;;;;8237668;28;20030;-69
2023/08/02 11:43:34;;;;;;;1.77;1.08;;;;;;;;;;8241694;28;20026;-68
2023/08/02 11:47:35;;;;;;;1.75;0.90;;;;;;;;;;8238976;28;20046;-68
2023/08/02 11:51:39;;;;;;;2.80;1.00;;;;;;;;;;8238467;28;20031;-69
2023/08/02 11:55:39;;;;;;;0.90;0.90;;;;;;;;;;8238549;28;20496;-69
2023/08/02 11:59:42;;;;;;;1.33;1.10;;;;;;;;;;8238745;28;20026;-69
2023/08/02 12:03:58;;;;;;;1.03;1.00;;;;;;;;;;8240491;28;20053;-69
2023/08/02 12:08:11;;;;;;;1.63;1.13;;;;;;;;;;8238810;28;20026;-69
2023/08/02 12:12:11;;;;;;;1.00;1.00;;;;;;;;;;8238121;28;20027;-69
2023/08/02 12:16:13;;;;;;;1.20;1.10;;;;;;;;;;8238314;28;20821;-69
2023/08/02 12:20:32;;;;;;;1.00;1.00;;;;;;;;;;8229883;28;20040;-69
2023/08/02 12:24:32;;;;;;;1.30;1.23;;;;;;;;;;8230636;28;20030;-69
2023/08/02 12:28:45;;;;;;;1.90;1.10;;;;;;;;;;8237055;28;20053;-69
2023/08/02 12:32:46;;;;;;;1.75;1.42;;;;;;;;;;8239399;28;20691;-69
2023/08/02 12:36:47;;;;;;;0.98;0.98;;;;;;;;;;8243753;28;20135;-69
2023/08/02 12:40:47;;;;;;;0.88;0.88;;;;;;;;;;8244915;28;20177;-69
2023/08/02 12:44:47;;;;;;;2.25;0.90;;;;;;;;;;8245790;28;20030;-69
2023/08/02 12:48:48;;;;;;;0.60;0.60;;;;;;;;;;8242703;28;20027;-69
2023/08/02 12:52:48;;;;;;;0.70;0.70;;;;;;;;;;8244972;28;20034;-69
2023/08/02 12:56:48;;;;;;;0.60;0.60;;;;;;;;;;8244206;28;20061;-69
2023/08/02 13:00:51;;;;;;;0.80;0.80;;;;;;;;;;8244628;28;20050;-69
2023/08/02 13:04:51;;;;;;;2.13;0.90;;;;;;;;;;8243207;28;20025;-69
2023/08/02 13:08:51;;;;;;;1.65;1.00;;;;;;;;;;8244399;28;20594;-70
2023/08/02 13:12:51;;;;;;;1.00;1.00;;;;;;;;;;8245402;28;20061;-69
2023/08/02 13:16:52;;;;;;;1.00;1.00;;;;;;;;;;8242532;28;20815;-70
2023/08/02 13:20:52;;;;;;;1.23;1.17;;;;;;;;;;8245022;28;20037;-70
2023/08/02 13:24:52;;;;;;;1.40;1.30;;;;;;;;;;8240029;28;20107;-69
2023/08/02 13:28:52;;;;;;;1.63;1.38;;;;;;;;;;8242439;28;20137;-69
2023/08/02 13:32:52;;;;;;;1.42;1.33;;;;;;;;;;8243155;28;20156;-69
2023/08/02 13:36:52;;;;;;;1.67;1.58;;;;;;;;;;8246643;28;20470;-70
2023/08/02 13:40:53;;;;;;;2.00;1.60;;;;;;;;;;8243956;28;20030;-69
2023/08/02 13:44:56;;;;;;;1.15;1.13;;;;;;;;;;8243314;28;20892;-69
2023/08/02 13:48:58;;;;;;;0.90;0.88;;;;;;;;;;8240535;28;20045;-70
2023/08/02 13:52:58;;;;;;;0.70;0.70;;;;;;;;;;8245198;28;20037;-69
2023/08/02 13:56:58;;;;;;;1.00;1.00;;;;;;;;;;8243602;28;20979;-69
2023/08/02 14:00:58;;;;;;;2.15;0.90;;;;;;;;;;8244226;28;20273;-70
2023/08/02 14:04:58;;;;;;;1.25;0.90;;;;;;;;;;8242499;28;20031;-70
2023/08/02 14:08:59;;;;;;;1.33;0.82;;;;;;;;;;8241429;28;20093;-70
2023/08/02 14:12:59;;;;;;;0.70;0.70;;;;;;;;;;8244081;28;20111;-70
2023/08/02 14:16:59;;;;;;;0.88;0.77;;;;;;;;;;8242398;28;20038;-70
2023/08/02 14:20:59;;;;;;;0.70;0.70;;;;;;;;;;8241601;28;20033;-71
2023/08/02 14:25:00;;;;;;;1.08;0.70;;;;;;;;;;8240912;28;20030;-71
2023/08/02 14:29:00;;;;;;;0.93;0.70;;;;;;;;;;8241313;28;20041;-71
2023/08/02 14:33:00;;;;;;;0.77;0.70;;;;;;;;;;8241834;28;20044;-71
2023/08/02 14:37:00;;;;;;;1.20;0.70;;;;;;;;;;8241461;28;20053;-71
2023/08/02 14:41:01;;;;;;;3.42;0.70;;;;;;;;;;8240734;28;20562;-71
2023/08/02 14:45:01;;;;;;;3.07;0.70;;;;;;;;;;8241752;28;20664;-70
2023/08/02 14:49:01;;;;;;;5.77;0.73;;;;;;;;;;8232927;28;20687;-71
2023/08/02 14:53:01;;;;;;;3.90;0.80;;;;;;;;;;8240675;28;20755;-70
2023/08/02 14:57:05;;;;;;;4.97;0.90;;;;;;;;;;8220600;28;20030;-72
2023/08/02 15:01:05;;;;;;;3.47;0.95;;;;;;;;;;8236851;28;20096;-70
2023/08/02 15:05:06;;;;;;;1.50;0.90;;;;;;;;;;8240133;28;20094;-71
2023/08/02 15:09:06;;;;;;;1.50;1.08;;;;;;;;;;8239424;28;20041;-70
2023/08/02 15:13:06;;;;;;;1.42;0.90;;;;;;;;;;8240531;28;20018;-70
2023/08/02 15:17:06;;;;;;;1.95;0.98;;;;;;;;;;8239147;28;20100;-70
2023/08/02 15:21:07;;;;;;;1.67;1.10;;;;;;;;;;8240648;28;20141;-70
2023/08/02 15:25:07;;;;;;;1.10;1.00;;;;;;;;;;8220639;28;20021;-72
2023/08/02 15:29:11;;;;;;;1.23;0.90;;;;;;;;;;8239223;28;20553;-70
2023/08/02 15:33:11;;;;;;;;;;;;;;;;;;8239693;28;20096;-72
2023/08/02 15:37:13;;;;;;;2.70;0.90;;;;;;;;;;8239488;28;19914;-70
2023/08/02 15:41:14;;;;;;;1.33;1.10;;;;;;;;;;8240194;28;20033;-71
2023/08/02 15:45:14;;;;;;;1.88;1.02;;;;;;;;;;8239757;28;20024;-71
2023/08/02 15:49:14;;;;;;;4.97;1.48;;;;;;;;;;8238610;28;20034;-70
2023/08/02 15:53:14;;;;;;;2.43;1.20;;;;;;;;;;8238752;28;20034;-70
2023/08/02 15:57:14;;;;;;;1.30;1.10;;;;;;;;;;8239857;28;20330;-70
2023/08/02 16:01:15;;;;;;;1.05;0.90;;;;;;;;;;8239934;28;20081;-70
2023/08/02 16:05:15;;;;;;;0.85;0.85;;;;;;;;;;8240017;28;20360;-70
2023/08/02 16:09:16;;;;;;;1.27;0.80;;;;;;;;;;8239219;28;20490;-70
2023/08/02 16:13:16;;;;;;;2.80;0.70;;;;;;;;;;8245380;28;20450;-71
2023/08/02 16:17:16;;;;;;;0.70;0.70;;;;;;;;;;8246068;28;20041;-70
2023/08/02 16:21:16;;;;;;;0.80;0.80;;;;;;;;;;8245802;28;20103;-70
2023/08/02 16:25:17;;;;;;;1.13;0.82;;;;;;;;;;8245232;28;20504;-70
2023/08/02 16:29:17;;;;;;;1.40;0.70;;;;;;;;;;8242676;28;20026;-70
2023/08/02 16:33:18;;;;;;;3.03;0.88;;;;;;;;;;8244819;28;20149;-70
2023/08/02 16:37:18;;;;;;;0.90;0.90;;;;;;;;;;8243348;28;20064;-70
2023/08/02 16:41:18;;;;;;;2.50;1.00;;;;;;;;;;8244892;28;20364;-70
2023/08/02 16:45:18;;;;;;;1.20;1.10;;;;;;;;;;8246012;28;20372;-70
2023/08/02 16:49:18;;;;;;;1.30;1.20;;;;;;;;;;8246646;28;20022;-70
2023/08/02 16:53:19;;;;;;;2.80;1.25;;;;;;;;;;8242453;28;20394;-70
2023/08/02 16:57:19;;;;;;;1.42;1.20;;;;;;;;;;8245254;28;20048;-70
2023/08/02 17:01:19;;;;;;;2.85;1.20;;;;;;;;;;8243916;28;20042;-70
2023/08/02 17:05:19;;;;;;;1.65;1.15;;;;;;;;;;8242669;28;20053;-70
2023/08/02 17:09:19;;;;;;;2.40;1.00;;;;;;;;;;8243009;28;20022;-70
2023/08/02 17:13:19;;;;;;;1.63;1.20;;;;;;;;;;8245026;28;20022;-71
2023/08/02 17:17:20;;;;;;;1.42;1.20;;;;;;;;;;8241474;28;20034;-70
2023/08/02 17:21:20;;;;;;;2.85;1.10;;;;;;;;;;8241286;28;20069;-70
2023/08/02 17:25:20;;;;;;;2.08;1.00;;;;;;;;;;8241667;28;20555;-70
2023/08/02 17:29:20;;;;;;;3.38;1.40;;;;;;;;;;8241012;28;20606;-70
2023/08/02 17:33:20;;;;;;;3.28;1.45;;;;;;;;;;8241728;28;20104;-70
2023/08/02 17:37:21;;;;;;;2.03;1.20;;;;;;;;;;8241513;28;20149;-70
2023/08/02 17:41:25;;;;;;;2.92;1.35;;;;;;;;;;8240989;28;20427;-70
2023/08/02 17:45:26;;;;;;;3.80;1.30;;;;;;;;;;8242015;28;20613;-70
2023/08/02 17:49:27;;;;;;;2.38;1.30;;;;;;;;;;8241865;28;20034;-70
2023/08/02 17:53:29;;;;;;;4.88;1.52;;;;;;;;;;8242443;28;20034;-70
2023/08/02 17:57:29;;;;;;;6.00;2.00;;;;;;;;;;8241838;28;20136;-70
2023/08/02 18:01:29;;;;;;;5.35;1.70;;;;;;;;;;8242053;28;20041;-70
2023/08/02 18:05:29;;;;;;;5.72;2.00;;;;;;;;;;8243233;28;20033;-70
2023/08/02 18:09:30;;;;;;;9.48;1.83;;;;;;;;;;8242576;28;20026;-70
2023/08/02 18:13:30;;;;;;;6.38;1.83;;;;;;;;;;8242824;28;20697;-70
2023/08/02 18:17:30;;;;;;;7.63;1.67;;;;;;;;;;8223802;28;20034;-70
2023/08/02 18:21:30;;;;;;;5.47;1.88;;;;;;;;;;8242671;28;20144;-70
2023/08/02 18:25:34;;;;;;;6.60;1.90;;;;;;;;;;8240801;28;20114;-70
2023/08/02 18:29:35;;;;;;;6.93;1.80;;;;;;;;;;8240841;28;20018;-70
2023/08/02 18:33:35;;;;;;;5.50;1.70;;;;;;;;;;8242050;28;20478;-70
2023/08/02 18:37:35;;;;;;;6.13;1.83;;;;;;;;;;8240676;28;20027;-70
2023/08/02 18:41:35;;;;;;;6.95;2.10;;;;;;;;;;8242958;28;20362;-70
2023/08/02 18:45:36;;;;;;;6.43;1.90;;;;;;;;;;8240857;28;20133;-71
2023/08/02 18:49:36;;;;;;;6.25;2.00;;;;;;;;;;8240880;28;20082;-70
2023/08/02 18:53:36;;;;;;;6.13;1.95;;;;;;;;;;8221048;28;20115;-70
2023/08/02 18:57:36;;;;;;;8.75;1.83;;;;;;;;;;8240094;28;20033;-70
2023/08/02 19:01:37;;;;;;;6.30;2.05;;;;;;;;;;8240150;28;20631;-70
2023/08/02 19:05:37;;;;;;;8.82;2.00;;;;;;;;;;8230170;28;20076;-70
2023/08/02 19:09:37;;;;;;;8.07;2.03;;;;;;;;;;8240051;28;20133;-70
2023/08/02 19:13:37;;;;;;;7.88;1.52;;;;;;;;;;8240958;28;20034;-70
2023/08/02 19:17:39;;;;;;;7.30;1.77;;;;;;;;;;8238515;28;20038;-70
2023/08/02 19:21:39;;;;;;;5.82;1.60;;;;;;;;;;8240162;28;20066;-70
2023/08/02 19:25:39;;;;;;;7.63;1.90;;;;;;;;;;8238947;28;20418;-70
2023/08/02 19:29:40;;;;;;;8.07;2.00;;;;;;;;;;8239411;28;20022;-70
2023/08/02 19:33:42;;;;;;;6.47;1.80;;;;;;;;;;8238875;28;20561;-70
2023/08/02 19:37:42;;;;;;;6.35;1.70;;;;;;;;;;8238986;28;20040;-70
2023/08/02 19:41:45;;;;;;;6.25;2.00;;;;;;;;;;8239332;28;20037;-70
2023/08/02 19:45:45;;;;;;;6.45;1.60;;;;;;;;;;8237615;28;20041;-70
2023/08/02 19:49:45;;;;;;;5.50;2.00;;;;;;;;;;8236168;28;20703;-70
2023/08/02 19:53:46;;;;;;;6.75;1.70;;;;;;;;;;8238941;28;20025;-70
2023/08/02 19:57:46;;;;;;;7.70;2.05;;;;;;;;;;8238272;28;20117;-70
2023/08/02 20:01:52;;;;;;;7.53;1.80;;;;;;;;;;8239937;28;20052;-70
2023/08/02 20:05:52;;;;;;;5.32;1.60;;;;;;;;;;8235747;28;20025;-70
2023/08/02 20:09:53;;;;;;;7.00;1.80;;;;;;;;;;8236610;28;20026;-70
2023/08/02 20:13:54;;;;;;;4.95;1.88;;;;;;;;;;8239852;28;20034;-70
2023/08/02 20:17:54;;;;;;;9.75;2.08;;;;;;;;;;8236661;28;20073;-70
2023/08/02 20:21:55;;;;;;;10.05;2.10;;;;;;;;;;8238138;28;20124;-70
2023/08/02 20:25:55;;;;;;;7.03;1.80;;;;;;;;;;8237376;28;20029;-70
2023/08/02 20:29:55;;;;;;;6.28;1.88;;;;;;;;;;8237686;28;20284;-70
2023/08/02 20:33:55;;;;;;;7.85;2.13;;;;;;;;;;8236360;28;20030;-70
2023/08/02 20:37:56;;;;;;;6.97;1.95;;;;;;;;;;8235858;28;20033;-70
2023/08/02 20:41:56;;;;;;;8.00;2.33;;;;;;;;;;8238656;28;20859;-70
2023/08/02 20:45:56;;;;;;;9.32;2.20;;;;;;;;;;8238044;28;20121;-70
2023/08/02 20:49:57;;;;;;;9.60;2.00;;;;;;;;;;8236951;28;20018;-70
2023/08/02 20:53:57;;;;;;;6.25;2.08;;;;;;;;;;8238231;28;20088;-70
2023/08/02 20:57:57;;;;;;;9.63;2.20;;;;;;;;;;8238126;28;20041;-70
2023/08/02 21:01:58;;;;;;;6.23;2.00;;;;;;;;;;8244666;28;20038;-70
2023/08/02 21:05:58;;;;;;;8.20;2.17;;;;;;;;;;8245891;28;20360;-70
2023/08/02 21:09:58;;;;;;;6.78;1.70;;;;;;;;;;8224237;28;21176;-70
2023/08/02 21:13:58;;;;;;;7.20;1.80;;;;;;;;;;8243249;28;20057;-70
2023/08/02 21:17:59;;;;;;;5.65;1.70;;;;;;;;;;8243464;28;20026;-70
2023/08/02 21:22:01;;;;;;;5.35;1.65;;;;;;;;;;8242024;28;20026;-70
2023/08/02 21:26:01;;;;;;;8.88;1.77;;;;;;;;;;8240679;28;20038;-70
2023/08/02 21:30:01;;;;;;;6.03;2.10;;;;;;;;;;8242109;28;20022;-70
2023/08/02 21:34:01;;;;;;;8.43;2.10;;;;;;;;;;8241236;28;20484;-70
2023/08/02 21:38:02;;;;;;;5.80;1.67;;;;;;;;;;8242526;28;20052;-70
2023/08/02 21:42:03;;;;;;;6.43;1.63;;;;;;;;;;8243940;28;20022;-70
2023/08/02 21:46:05;;;;;;;7.65;1.48;;;;;;;;;;8242352;28;20096;-70
2023/08/02 21:50:07;;;;;;;8.57;1.80;;;;;;;;;;8241969;28;20022;-70
2023/08/02 21:54:07;;;;;;;7.18;1.77;;;;;;;;;;8242394;28;20041;-70
2023/08/02 21:58:10;;;;;;;7.90;1.80;;;;;;;;;;8241434;28;20399;-70
2023/08/02 22:02:11;;;;;;;7.60;1.85;;;;;;;;;;8241442;28;20040;-70
2023/08/02 22:06:11;;;;;;;9.10;1.70;;;;;;;;;;8242030;28;20120;-70
2023/08/02 22:10:14;;;;;;;4.70;1.90;;;;;;;;;;8241781;28;20036;-70
2023/08/02 22:14:15;;;;;;;13.88;1.80;;;;;;;;;;8243450;28;20034;-70
2023/08/02 22:18:16;;;;;;;14.27;2.00;;;;;;;;;;8240829;28;20759;-70
2023/08/02 22:22:16;;;;;;;6.25;1.88;;;;;;;;;;8243240;28;20027;-70
2023/08/02 22:26:16;;;;;;;9.82;1.98;;;;;;;;;;8241617;28;20030;-70
2023/08/02 22:30:16;;;;;;;12.13;1.77;;;;;;;;;;8240160;28;20870;-70
2023/08/02 22:34:16;;;;;;;6.10;1.75;;;;;;;;;;8241810;28;20525;-70
2023/08/02 22:38:16;;;;;;;8.77;1.90;;;;;;;;;;8241358;28;20033;-70
2023/08/02 22:42:17;;;;;;;8.05;1.92;;;;;;;;;;8240626;28;20057;-70
2023/08/02 22:46:17;;;;;;;7.00;1.90;;;;;;;;;;8242001;28;20407;-70
2023/08/02 22:50:17;;;;;;;5.65;1.73;;;;;;;;;;8239588;28;20570;-70
2023/08/02 22:54:18;;;;;;;10.45;2.20;;;;;;;;;;8242798;28;20033;-70
2023/08/02 22:58:18;;;;;;;7.75;2.03;;;;;;;;;;8239593;28;20807;-70
2023/08/02 23:02:18;;;;;;;10.57;1.93;;;;;;;;;;8240187;28;20066;-70
2023/08/02 23:06:21;;;;;;;7.00;1.50;;;;;;;;;;8240445;28;20406;-70
2023/08/02 23:10:28;;;;;;;4.63;1.75;;;;;;;;;;8239902;28;20034;-70
2023/08/02 23:14:28;;;;;;;6.05;1.80;;;;;;;;;;8240517;28;20037;-70
2023/08/02 23:18:28;;;;;;;5.43;1.48;;;;;;;;;;8237659;28;20510;-70
2023/08/02 23:22:29;;;;;;;3.85;1.45;;;;;;;;;;8238095;28;20779;-70
2023/08/02 23:26:29;;;;;;;5.18;1.58;;;;;;;;;;8241655;28;20026;-70
2023/08/02 23:30:32;;;;;;;7.07;1.45;;;;;;;;;;8240176;28;20118;-70
2023/08/02 23:34:32;;;;;;;5.33;1.30;;;;;;;;;;8240079;28;20061;-70
2023/08/02 23:38:32;;;;;;;5.82;1.40;;;;;;;;;;8239923;28;20033;-70
2023/08/02 23:42:32;;;;;;;5.57;1.35;;;;;;;;;;8240159;28;20035;-70
2023/08/02 23:46:33;;;;;;;7.28;1.50;;;;;;;;;;8238976;28;20045;-70
2023/08/02 23:50:34;;;;;;;5.63;1.42;;;;;;;;;;8239968;28;20032;-70
2023/08/02 23:54:34;;;;;;;6.43;1.45;;;;;;;;;;8239811;28;20133;-69
2023/08/02 23:58:34;;;;;;;6.10;1.33;;;;;;;;;;8237013;28;20200;-70
